Karapiperis 15 — SW5720 — position and weather

sailwx.info

Track history (hours):
 
Tides and Currents Weather Stations Pressure Air Temp Water Temp Dewpoint Dewpoint Depression Visibility Wind Speed Wind Dir Waves Ship Positions

Karapiperis 15

Last reported at 2017-Oct-14 16:07 UTC. Time now 2017-Oct-20 12:25 UTC.
Position N 37°58' E 023°34'.

Length 28 m.

Type: Tug. MMSI: 237008300.

Date/timePositionNaut miles runAvg speedWind from/ knotsBaromVisibWave heightAir tempDewpointWater temp
2017-Oct-14 16:07N 37°58' E 023°34'0 0.0
2017-Oct-14 15:55N 37°58' E 023°34'0 0.0
2017-Oct-14 15:28N 37°58' E 023°34'3 5.9
2017-Oct-14 15:00N 38°00' E 023°33'2 4.0
2017-Oct-14 14:30N 38°02' E 023°35'0 0.0
2017-Oct-14 01:29N 38°01' E 023°36'0 0.0
2017-Oct-13 22:02N 38°01' E 023°36'0 0.0
2017-Oct-13 21:56N 38°01' E 023°36'0 0.0
2017-Oct-13 09:32N 38°01' E 023°36'0 0.0
2017-Oct-13 09:26N 38°01' E 023°36'0 0.4
2017-Oct-13 08:57N 38°02' E 023°36'1 2.9
2017-Oct-13 08:29N 38°01' E 023°34'1 0.7
2017-Oct-13 07:42N 38°01' E 023°34'1 2.4
2017-Oct-13 07:29N 38°00' E 023°34'2 3.6
2017-Oct-13 07:00N 37°59' E 023°33'2 3.2
2017-Oct-13 06:30N 37°58' E 023°34'1 1.9
2017-Oct-13 06:00N 37°57' E 023°35'0 0.7
2017-Oct-13 05:26N 37°57' E 023°35'1 1.3
2017-Oct-13 04:55N 37°58' E 023°34'0 0.0
2017-Oct-13 04:28N 37°58' E 023°34'0 0.0
2017-Oct-13 03:58N 37°58' E 023°34'0 0.0
2017-Oct-13 03:28N 37°58' E 023°34'0 0.0
2017-Oct-13 02:58N 37°58' E 023°34'0 0.0
2017-Oct-12 11:02N 37°58' E 023°34'0 0.1
2017-Oct-12 10:59N 37°58' E 023°34'0 0.0
2017-Oct-12 10:26N 37°58' E 023°34'0 0.0
2017-Oct-12 09:59N 37°58' E 023°34'0 0.0
2017-Oct-12 09:29N 37°58' E 023°34'0 0.0
2017-Oct-12 08:59N 37°58' E 023°34'0 0.0
2017-Oct-12 08:30N 37°58' E 023°34'0 0.0
2017-Oct-12 08:00N 37°58' E 023°34'0 0.0
2017-Oct-12 07:30N 37°58' E 023°34'0 0.0
2017-Oct-12 07:00N 37°58' E 023°34'2 3.1
2017-Oct-12 06:30N 37°58' E 023°36'1 1.7
2017-Oct-12 06:00N 37°57' E 023°36'1 0.0
2017-Oct-10 11:19N 37°58' E 023°34'0 0.0
2017-Oct-10 10:58N 37°58' E 023°34'0 0.0
2017-Oct-10 10:28N 37°58' E 023°34'0 0.0
2017-Oct-10 09:58N 37°58' E 023°34'0 0.0
2017-Oct-10 09:28N 37°58' E 023°34'0 0.0
2017-Oct-10 08:58N 37°58' E 023°34'0 0.0
2017-Oct-10 08:26N 37°58' E 023°34'0 0.0
2017-Oct-10 07:59N 37°58' E 023°34'0 0.0
2017-Oct-10 07:29N 37°58' E 023°34'2 4.2
2017-Oct-10 07:00N 37°59' E 023°33'3 5.2
2017-Oct-10 06:30N 38°02' E 023°33'2 3.6
2017-Oct-10 06:00N 37°60' E 023°33'3 5.0
2017-Oct-10 05:28N 37°58' E 023°34'0 0.0
2017-Oct-10 04:58N 37°58' E 023°34'0 0.0
2017-Oct-10 04:28N 37°58' E 023°34'0 0.0
2017-Oct-10 03:58N 37°58' E 023°34'0 0.0
2017-Oct-10 03:28N 37°58' E 023°34'0 0.0
2017-Oct-10 02:58N 37°58' E 023°34'0 0.0
2017-Oct-09 11:18N 37°58' E 023°34'0 0.0
2017-Oct-09 10:59N 37°58' E 023°34'1 3.0
2017-Oct-09 10:30N 37°58' E 023°33'4 7.5
2017-Oct-09 09:57N 38°02' E 023°34'2 4.6
2017-Oct-09 09:29N 38°00' E 023°33'1 2.2
2017-Oct-09 09:00N 37°59' E 023°33'2 3.6
2017-Oct-09 08:28N 37°58' E 023°34'0 0.0
2017-Oct-09 07:58N 37°58' E 023°34'0 0.2
2017-Oct-09 07:30N 37°58' E 023°34'0 0.4
2017-Oct-09 06:58N 37°57' E 023°35'2 4.3
2017-Oct-09 06:30N 37°56' E 023°37'1 1.8
2017-Oct-09 06:00N 37°57' E 023°38'0 0.2
2017-Oct-09 05:30N 37°57' E 023°38'1 1.5
2017-Oct-09 05:00N 37°56' E 023°37'1 2.6
2017-Oct-09 04:30N 37°57' E 023°36'1 1.9
2017-Oct-09 03:59N 37°58' E 023°34'0 0.0
2017-Oct-09 03:29N 37°58' E 023°34'0 0.0
2017-Oct-09 02:59N 37°58' E 023°34'0 0.0
2017-Oct-08 03:56N 37°58' E 023°34'0 0.0
2017-Oct-07 10:39N 37°58' E 023°34'0 0.0
2017-Oct-07 10:26N 37°58' E 023°34'2 4.5
2017-Oct-07 10:00N 37°57' E 023°37'1 1.8
2017-Oct-07 09:30N 37°56' E 023°37'1 2.3
2017-Oct-07 09:00N 37°57' E 023°36'4 6.5
2017-Oct-07 08:27N 37°60' E 023°33'3 6.4
2017-Oct-07 08:00N 38°02' E 023°36'2 3.7
2017-Oct-07 07:30N 38°01' E 023°34'2 4.6
2017-Oct-07 07:00N 37°58' E 023°33'1 2.6
2017-Oct-07 06:29N 37°58' E 023°34'0 0.1
2017-Oct-07 06:00N 37°58' E 023°34'2 4.4
2017-Oct-07 05:30N 37°56' E 023°36'1 2.7
2017-Oct-07 05:00N 37°55' E 023°38'2 4.2
2017-Oct-07 04:29N 37°57' E 023°36'2 3.6
2017-Oct-07 03:59N 37°56' E 023°38'1 2.6
2017-Oct-07 03:30N 37°56' E 023°37'2 3.5
2017-Oct-07 02:59N 37°57' E 023°35'0 0.0
2017-Oct-07 02:30N 37°57' E 023°35'0 0.0
2017-Oct-07 02:00N 37°57' E 023°35'0 0.0
2017-Oct-07 01:30N 37°57' E 023°35'0 0.0
2017-Oct-07 01:00N 37°57' E 023°35'0 0.0
2017-Oct-07 00:30N 37°57' E 023°35'0 0.0
2017-Oct-06 23:57N 37°57' E 023°35'0 0.0
2017-Oct-06 23:30N 37°57' E 023°35'0 0.0
2017-Oct-06 23:00N 37°57' E 023°35'0 0.0
2017-Oct-06 22:30N 37°57' E 023°35'0 0.8
2017-Oct-06 22:00N 37°57' E 023°35'0 0.0
2017-Oct-06 21:30N 37°57' E 023°35'0 0.0
2017-Oct-06 20:59N 37°57' E 023°35'0 0.0
2017-Oct-06 20:29N 37°57' E 023°35'0 0.0
2017-Oct-06 20:00N 37°57' E 023°35'1 1.3
2017-Oct-06 19:28N 37°58' E 023°34'2 3.7
2017-Oct-06 19:00N 37°59' E 023°33'3 6.6
2017-Oct-06 18:29N 38°02' E 023°32'0 0.2
2017-Oct-06 17:57N 38°02' E 023°32'0 0.0
2017-Oct-06 17:27N 38°02' E 023°32'0 0.0
2017-Oct-06 16:57N 38°02' E 023°32'0 0.0
2017-Oct-06 16:27N 38°02' E 023°32'0 0.0
2017-Oct-06 15:57N 38°02' E 023°32'0 0.0
2017-Oct-06 15:27N 38°02' E 023°32'0 0.0
2017-Oct-06 14:57N 38°02' E 023°32'0 0.0
2017-Oct-06 14:27N 38°02' E 023°32'0 0.0
2017-Oct-06 13:57N 38°02' E 023°32'0 0.0
2017-Oct-06 13:27N 38°02' E 023°32'0 0.7
2017-Oct-06 13:00N 38°02' E 023°33'0 0.6
2017-Oct-06 12:27N 38°02' E 023°32'0 0.0
2017-Oct-06 11:57N 38°02' E 023°32'0 0.0
2017-Oct-06 11:21N 38°02' E 023°32'0 0.0
2017-Oct-06 10:57N 38°02' E 023°32'0 0.1
2017-Oct-06 10:30N 38°02' E 023°32'0 0.2
2017-Oct-06 09:58N 38°02' E 023°32'2 3.6
2017-Oct-06 09:28N 38°02' E 023°30'0 0.2
2017-Oct-06 09:00N 38°02' E 023°30'0 0.0
2017-Oct-06 08:30N 38°02' E 023°30'0 0.0
2017-Oct-06 07:59N 38°02' E 023°30'0 0.0
2017-Oct-06 07:29N 38°02' E 023°30'0 0.0
2017-Oct-06 06:59N 38°02' E 023°30'2 4.1
2017-Oct-06 06:29N 38°02' E 023°33'0 0.3
2017-Oct-06 06:00N 38°02' E 023°33'2 3.7
2017-Oct-06 05:30N 38°02' E 023°35'1 0.9
2017-Oct-06 04:42N 38°02' E 023°36'1 6.7
2017-Oct-06 04:30N 38°01' E 023°34'3 6.5
2017-Oct-06 04:00N 37°58' E 023°34'0 0.1
2017-Oct-06 03:29N 37°58' E 023°34'0 0.0
2017-Oct-06 02:59N 37°58' E 023°34'0 0.0
2017-Oct-05 12:41N 37°58' E 023°34'0 0.0
2017-Oct-05 12:30N 37°58' E 023°34'1 1.9
2017-Oct-05 11:58N 37°57' E 023°35'1 2.0
2017-Oct-05 11:28N 37°58' E 023°34'1 1.3
2017-Oct-05 11:00N 37°57' E 023°35'3 5.4
2017-Oct-05 10:27N 37°60' E 023°33'3 2.5
2017-Oct-05 09:22N 38°01' E 023°36'0 0.0
2017-Oct-05 08:58N 38°01' E 023°36'0 0.4
2017-Oct-05 08:27N 38°02' E 023°35'2 2.4
2017-Oct-05 07:50N 38°01' E 023°34'3 8.5
2017-Oct-05 07:30N 37°58' E 023°33'4 8.1
2017-Oct-05 07:00N 37°56' E 023°38'1 1.8
2017-Oct-05 06:30N 37°57' E 023°37'2 3.8
2017-Oct-05 06:00N 37°57' E 023°34'0 0.3
2017-Oct-05 05:30N 37°58' E 023°34'0 0.1
2017-Oct-05 05:00N 37°58' E 023°34'0 0.1
2017-Oct-05 04:30N 37°58' E 023°34'0 0.0
2017-Oct-05 04:00N 37°58' E 023°34'0 0.0
2017-Oct-05 03:25N 37°58' E 023°34'0 0.0
2017-Oct-05 02:58N 37°58' E 023°34'  
Track history (hours):
 
Tides and Currents Weather Stations Pressure Air Temp Water Temp Dewpoint Dewpoint Depression Visibility Wind Speed Wind Dir Waves Ship Positions

Karapiperis 15

Last reported at 2017-Oct-14 16:07 UTC. Time now 2017-Oct-20 12:25 UTC.
Position N 37°58' E 023°34'.

Length 28 m.

Type: Tug. MMSI: 237008300.

Date/timePositionNaut miles runAvg speedWind from/ knotsBaromVisibWave heightAir tempDewpointWater temp
2017-Oct-14 16:07N 37°58' E 023°34'0 0.0
2017-Oct-14 15:55N 37°58' E 023°34'0 0.0
2017-Oct-14 15:28N 37°58' E 023°34'3 5.9
2017-Oct-14 15:00N 38°00' E 023°33'2 4.0
2017-Oct-14 14:30N 38°02' E 023°35'0 0.0
2017-Oct-14 01:29N 38°01' E 023°36'0 0.0
2017-Oct-13 22:02N 38°01' E 023°36'0 0.0
2017-Oct-13 21:56N 38°01' E 023°36'0 0.0
2017-Oct-13 09:32N 38°01' E 023°36'0 0.0
2017-Oct-13 09:26N 38°01' E 023°36'0 0.4
2017-Oct-13 08:57N 38°02' E 023°36'1 2.9
2017-Oct-13 08:29N 38°01' E 023°34'1 0.7
2017-Oct-13 07:42N 38°01' E 023°34'1 2.4
2017-Oct-13 07:29N 38°00' E 023°34'2 3.6
2017-Oct-13 07:00N 37°59' E 023°33'2 3.2
2017-Oct-13 06:30N 37°58' E 023°34'1 1.9
2017-Oct-13 06:00N 37°57' E 023°35'0 0.7
2017-Oct-13 05:26N 37°57' E 023°35'1 1.3
2017-Oct-13 04:55N 37°58' E 023°34'0 0.0
2017-Oct-13 04:28N 37°58' E 023°34'0 0.0
2017-Oct-13 03:58N 37°58' E 023°34'0 0.0
2017-Oct-13 03:28N 37°58' E 023°34'0 0.0
2017-Oct-13 02:58N 37°58' E 023°34'0 0.0
2017-Oct-12 11:02N 37°58' E 023°34'0 0.1
2017-Oct-12 10:59N 37°58' E 023°34'0 0.0
2017-Oct-12 10:26N 37°58' E 023°34'0 0.0
2017-Oct-12 09:59N 37°58' E 023°34'0 0.0
2017-Oct-12 09:29N 37°58' E 023°34'0 0.0
2017-Oct-12 08:59N 37°58' E 023°34'0 0.0
2017-Oct-12 08:30N 37°58' E 023°34'0 0.0
2017-Oct-12 08:00N 37°58' E 023°34'0 0.0
2017-Oct-12 07:30N 37°58' E 023°34'0 0.0
2017-Oct-12 07:00N 37°58' E 023°34'2 3.1
2017-Oct-12 06:30N 37°58' E 023°36'1 1.7
2017-Oct-12 06:00N 37°57' E 023°36'1 0.0
2017-Oct-10 11:19N 37°58' E 023°34'0 0.0
2017-Oct-10 10:58N 37°58' E 023°34'0 0.0
2017-Oct-10 10:28N 37°58' E 023°34'0 0.0
2017-Oct-10 09:58N 37°58' E 023°34'0 0.0
2017-Oct-10 09:28N 37°58' E 023°34'0 0.0
2017-Oct-10 08:58N 37°58' E 023°34'0 0.0
2017-Oct-10 08:26N 37°58' E 023°34'0 0.0
2017-Oct-10 07:59N 37°58' E 023°34'0 0.0
2017-Oct-10 07:29N 37°58' E 023°34'2 4.2
2017-Oct-10 07:00N 37°59' E 023°33'3 5.2
2017-Oct-10 06:30N 38°02' E 023°33'2 3.6
2017-Oct-10 06:00N 37°60' E 023°33'3 5.0
2017-Oct-10 05:28N 37°58' E 023°34'0 0.0
2017-Oct-10 04:58N 37°58' E 023°34'0 0.0
2017-Oct-10 04:28N 37°58' E 023°34'0 0.0
2017-Oct-10 03:58N 37°58' E 023°34'0 0.0
2017-Oct-10 03:28N 37°58' E 023°34'0 0.0
2017-Oct-10 02:58N 37°58' E 023°34'0 0.0
2017-Oct-09 11:18N 37°58' E 023°34'0 0.0
2017-Oct-09 10:59N 37°58' E 023°34'1 3.0
2017-Oct-09 10:30N 37°58' E 023°33'4 7.5
2017-Oct-09 09:57N 38°02' E 023°34'2 4.6
2017-Oct-09 09:29N 38°00' E 023°33'1 2.2
2017-Oct-09 09:00N 37°59' E 023°33'2 3.6
2017-Oct-09 08:28N 37°58' E 023°34'0 0.0
2017-Oct-09 07:58N 37°58' E 023°34'0 0.2
2017-Oct-09 07:30N 37°58' E 023°34'0 0.4
2017-Oct-09 06:58N 37°57' E 023°35'2 4.3
2017-Oct-09 06:30N 37°56' E 023°37'1 1.8
2017-Oct-09 06:00N 37°57' E 023°38'0 0.2
2017-Oct-09 05:30N 37°57' E 023°38'1 1.5
2017-Oct-09 05:00N 37°56' E 023°37'1 2.6
2017-Oct-09 04:30N 37°57' E 023°36'1 1.9
2017-Oct-09 03:59N 37°58' E 023°34'0 0.0
2017-Oct-09 03:29N 37°58' E 023°34'0 0.0
2017-Oct-09 02:59N 37°58' E 023°34'0 0.0
2017-Oct-08 03:56N 37°58' E 023°34'0 0.0
2017-Oct-07 10:39N 37°58' E 023°34'0 0.0
2017-Oct-07 10:26N 37°58' E 023°34'2 4.5
2017-Oct-07 10:00N 37°57' E 023°37'1 1.8
2017-Oct-07 09:30N 37°56' E 023°37'1 2.3
2017-Oct-07 09:00N 37°57' E 023°36'4 6.5
2017-Oct-07 08:27N 37°60' E 023°33'3 6.4
2017-Oct-07 08:00N 38°02' E 023°36'2 3.7
2017-Oct-07 07:30N 38°01' E 023°34'2 4.6
2017-Oct-07 07:00N 37°58' E 023°33'1 2.6
2017-Oct-07 06:29N 37°58' E 023°34'0 0.1
2017-Oct-07 06:00N 37°58' E 023°34'2 4.4
2017-Oct-07 05:30N 37°56' E 023°36'1 2.7
2017-Oct-07 05:00N 37°55' E 023°38'2 4.2
2017-Oct-07 04:29N 37°57' E 023°36'2 3.6
2017-Oct-07 03:59N 37°56' E 023°38'1 2.6
2017-Oct-07 03:30N 37°56' E 023°37'2 3.5
2017-Oct-07 02:59N 37°57' E 023°35'0 0.0
2017-Oct-07 02:30N 37°57' E 023°35'0 0.0
2017-Oct-07 02:00N 37°57' E 023°35'0 0.0
2017-Oct-07 01:30N 37°57' E 023°35'0 0.0
2017-Oct-07 01:00N 37°57' E 023°35'0 0.0
2017-Oct-07 00:30N 37°57' E 023°35'0 0.0
2017-Oct-06 23:57N 37°57' E 023°35'0 0.0
2017-Oct-06 23:30N 37°57' E 023°35'0 0.0
2017-Oct-06 23:00N 37°57' E 023°35'0 0.0
2017-Oct-06 22:30N 37°57' E 023°35'0 0.8
2017-Oct-06 22:00N 37°57' E 023°35'0 0.0
2017-Oct-06 21:30N 37°57' E 023°35'0 0.0
2017-Oct-06 20:59N 37°57' E 023°35'0 0.0
2017-Oct-06 20:29N 37°57' E 023°35'0 0.0
2017-Oct-06 20:00N 37°57' E 023°35'1 1.3
2017-Oct-06 19:28N 37°58' E 023°34'2 3.7
2017-Oct-06 19:00N 37°59' E 023°33'3 6.6
2017-Oct-06 18:29N 38°02' E 023°32'0 0.2
2017-Oct-06 17:57N 38°02' E 023°32'0 0.0
2017-Oct-06 17:27N 38°02' E 023°32'0 0.0
2017-Oct-06 16:57N 38°02' E 023°32'0 0.0
2017-Oct-06 16:27N 38°02' E 023°32'0 0.0
2017-Oct-06 15:57N 38°02' E 023°32'0 0.0
2017-Oct-06 15:27N 38°02' E 023°32'0 0.0
2017-Oct-06 14:57N 38°02' E 023°32'0 0.0
2017-Oct-06 14:27N 38°02' E 023°32'0 0.0
2017-Oct-06 13:57N 38°02' E 023°32'0 0.0
2017-Oct-06 13:27N 38°02' E 023°32'0 0.7
2017-Oct-06 13:00N 38°02' E 023°33'0 0.6
2017-Oct-06 12:27N 38°02' E 023°32'0 0.0
2017-Oct-06 11:57N 38°02' E 023°32'0 0.0
2017-Oct-06 11:21N 38°02' E 023°32'0 0.0
2017-Oct-06 10:57N 38°02' E 023°32'0 0.1
2017-Oct-06 10:30N 38°02' E 023°32'0 0.2
2017-Oct-06 09:58N 38°02' E 023°32'2 3.6
2017-Oct-06 09:28N 38°02' E 023°30'0 0.2
2017-Oct-06 09:00N 38°02' E 023°30'0 0.0
2017-Oct-06 08:30N 38°02' E 023°30'0 0.0
2017-Oct-06 07:59N 38°02' E 023°30'0 0.0
2017-Oct-06 07:29N 38°02' E 023°30'0 0.0
2017-Oct-06 06:59N 38°02' E 023°30'2 4.1
2017-Oct-06 06:29N 38°02' E 023°33'0 0.3
2017-Oct-06 06:00N 38°02' E 023°33'2 3.7
2017-Oct-06 05:30N 38°02' E 023°35'1 0.9
2017-Oct-06 04:42N 38°02' E 023°36'1 6.7
2017-Oct-06 04:30N 38°01' E 023°34'3 6.5
2017-Oct-06 04:00N 37°58' E 023°34'0 0.1
2017-Oct-06 03:29N 37°58' E 023°34'0 0.0
2017-Oct-06 02:59N 37°58' E 023°34'0 0.0
2017-Oct-05 12:41N 37°58' E 023°34'0 0.0
2017-Oct-05 12:30N 37°58' E 023°34'1 1.9
2017-Oct-05 11:58N 37°57' E 023°35'1 2.0
2017-Oct-05 11:28N 37°58' E 023°34'1 1.3
2017-Oct-05 11:00N 37°57' E 023°35'3 5.4
2017-Oct-05 10:27N 37°60' E 023°33'3 2.5
2017-Oct-05 09:22N 38°01' E 023°36'0 0.0
2017-Oct-05 08:58N 38°01' E 023°36'0 0.4
2017-Oct-05 08:27N 38°02' E 023°35'2 2.4
2017-Oct-05 07:50N 38°01' E 023°34'3 8.5
2017-Oct-05 07:30N 37°58' E 023°33'4 8.1
2017-Oct-05 07:00N 37°56' E 023°38'1 1.8
2017-Oct-05 06:30N 37°57' E 023°37'2 3.8
2017-Oct-05 06:00N 37°57' E 023°34'0 0.3
2017-Oct-05 05:30N 37°58' E 023°34'0 0.1
2017-Oct-05 05:00N 37°58' E 023°34'0 0.1
2017-Oct-05 04:30N 37°58' E 023°34'0 0.0
2017-Oct-05 04:00N 37°58' E 023°34'0 0.0
2017-Oct-05 03:25N 37°58' E 023°34'0 0.0
2017-Oct-05 02:58N 37°58' E 023°34'  

Dump ship's entire track history